Time;durP1;ratioP1;P1;durP2;ratioP2;P2;SDS_P1;SDS_P2;PMS_P1;PMS_P2;Temp;Humidity;BMP_temperature;BMP_pressure;BME280_temperature;BME280_humidity;BME280_pressure;Samples;Min_cycle;Max_cycle;Signal;HPM_P1;HPM_P2
2020/12/25 00:00:59;;;;;;;1.20;0.30;;;;;;;1.21;71.85;101876.88;4779322;29;20047;-73
2020/12/25 00:03:56;;;;;;;;;;;;;;;;;;;;;
2020/12/25 00:07:17;;;;;;;0.93;0.55;;;;;;;1.13;72.23;101879.56;4828068;29;20039;-75
2020/12/25 00:09:42;;;;;;;0.30;0.28;;;;;;;1.07;71.81;101885.63;4826054;29;20043;-74
2020/12/25 00:12:08;;;;;;;0.60;0.50;;;;;;;1.00;71.34;101880.06;4917197;29;20088;-73
2020/12/25 00:14:34;;;;;;;1.27;0.50;;;;;;;1.01;71.24;101876.38;4920019;29;20040;-73
2020/12/25 00:16:59;;;;;;;0.52;0.50;;;;;;;0.98;71.90;101870.47;4919579;29;20043;-74
2020/12/25 00:19:26;;;;;;;3.65;0.45;;;;;;;0.90;72.43;101870.47;4917461;29;20158;-72
2020/12/25 00:21:54;;;;;;;0.80;0.50;;;;;;;0.89;72.39;101866.91;4913344;29;20056;-73
2020/12/25 00:24:21;;;;;;;0.30;0.30;;;;;;;0.87;72.08;101871.63;4910588;29;20098;-74
2020/12/25 00:26:47;;;;;;;0.80;0.43;;;;;;;0.86;72.70;101873.50;4911993;29;20032;-76
2020/12/25 00:29:13;;;;;;;0.55;0.47;;;;;;;0.87;71.99;101875.16;4919932;29;20107;-75
2020/12/25 00:31:39;;;;;;;0.47;0.40;;;;;;;0.80;71.84;101866.06;4894262;29;20039;-76
2020/12/25 00:34:07;;;;;;;0.25;0.15;;;;;;;0.84;72.12;101878.19;4920718;29;20039;-74
2020/12/25 00:36:38;;;;;;;0.55;0.40;;;;;;;0.79;72.20;101863.53;4927566;29;20032;-75
2020/12/25 00:39:12;;;;;;;0.22;0.22;;;;;;;0.84;72.79;101864.72;4905252;29;20436;-75
2020/12/25 00:41:49;;;;;;;6.20;0.30;;;;;;;0.71;72.61;101853.59;4907562;29;20040;-75
2020/12/25 00:44:15;;;;;;;0.40;0.30;;;;;;;0.81;71.88;101867.75;4927151;29;20030;-75
2020/12/25 00:46:42;;;;;;;0.40;0.30;;;;;;;0.82;71.76;101882.91;4895731;29;20032;-75
2020/12/25 00:49:08;;;;;;;2.80;0.50;;;;;;;0.80;72.16;101876.00;4945848;29;20066;-77
2020/12/25 00:51:33;;;;;;;0.82;0.52;;;;;;;0.82;73.25;101885.59;4946457;29;20055;-76
2020/12/25 00:53:59;;;;;;;0.47;0.20;;;;;;;0.86;72.15;101888.78;4920060;29;20047;-76
2020/12/25 00:56:25;;;;;;;0.32;0.30;;;;;;;0.81;73.02;101875.84;4945492;29;20393;-77
2020/12/25 00:58:51;;;;;;;0.70;0.40;;;;;;;0.93;72.98;101889.81;4928865;29;20058;-75
2020/12/25 01:01:32;;;;;;;3.67;0.80;;;;;;;0.93;72.52;101886.28;4940139;29;20032;-75
2020/12/25 01:03:58;;;;;;;0.40;0.40;;;;;;;0.91;72.53;101864.06;4929643;29;20462;-76
2020/12/25 01:06:26;;;;;;;1.70;0.75;;;;;;;0.89;71.93;101860.69;4924274;29;20031;-76
2020/12/25 01:08:51;;;;;;;6.10;0.82;;;;;;;1.01;72.83;101880.94;4927002;29;20031;-76
2020/12/25 01:11:17;;;;;;;1.52;0.52;;;;;;;1.06;72.92;101878.56;4923705;29;20062;-75
2020/12/25 01:13:46;;;;;;;4.60;0.65;;;;;;;0.97;72.00;101856.16;4927438;29;20035;-75
2020/12/25 01:16:19;;;;;;;0.68;0.20;;;;;;;1.02;71.99;101861.03;4944563;29;20127;-75
2020/12/25 01:18:46;;;;;;;2.88;0.98;;;;;;;0.87;71.20;101842.84;4948529;29;20087;-75
2020/12/25 01:21:12;;;;;;;4.90;0.40;;;;;;;0.92;72.12;101865.75;4929957;29;20038;-75
2020/12/25 01:23:38;;;;;;;2.17;0.38;;;;;;;0.98;72.25;101870.47;4922223;29;20470;-76
2020/12/25 01:26:07;;;;;;;0.30;0.20;;;;;;;0.98;71.80;101862.38;4946924;29;20041;-74
2020/12/25 01:28:33;;;;;;;4.20;0.30;;;;;;;0.98;72.28;101865.94;4926784;29;20042;-76
2020/12/25 01:30:58;;;;;;;0.90;0.40;;;;;;;1.11;71.96;101869.97;4945178;29;20110;-75
2020/12/25 01:33:24;;;;;;;5.28;0.55;;;;;;;1.04;71.56;101853.66;4921925;29;20056;-76
2020/12/25 01:35:49;;;;;;;0.85;0.60;;;;;;;1.11;72.12;101865.44;4928787;29;20027;-75
2020/12/25 01:38:18;;;;;;;1.27;0.65;;;;;;;1.04;72.38;101849.09;4921793;29;20028;-75
2020/12/25 01:40:44;;;;;;;1.85;1.25;;;;;;;1.08;71.86;101852.31;4913385;29;20043;-76
2020/12/25 01:43:09;;;;;;;1.20;0.22;;;;;;;1.15;71.78;101861.38;4945861;29;20042;-75
2020/12/25 01:45:35;;;;;;;1.33;0.35;;;;;;;1.08;72.01;101846.06;4944370;29;20036;-75
2020/12/25 01:48:00;;;;;;;2.15;0.32;;;;;;;1.14;72.11;101859.72;4936224;29;20052;-76
2020/12/25 01:50:28;;;;;;;1.98;0.55;;;;;;;1.11;71.75;101862.75;4933036;29;20024;-74
2020/12/25 01:52:54;;;;;;;1.77;1.50;;;;;;;1.18;71.51;101877.22;4942676;29;20061;-75
2020/12/25 01:55:28;;;;;;;4.07;0.52;;;;;;;1.17;72.48;101872.84;4940249;29;20058;-75
2020/12/25 01:58:39;;;;;;;4.97;0.25;;;;;;;1.17;71.59;101883.63;4942367;29;20030;-75
2020/12/25 02:01:57;;;;;;;;;;;;;;;;;;;;;
2020/12/25 02:04:56;;;;;;;1.88;0.50;;;;;;;1.01;72.53;101873.69;4909575;29;20118;-75
2020/12/25 02:08:15;;;;;;;0.17;0.17;;;;;;;1.07;72.75;101891.03;4926531;29;20044;-77
2020/12/25 02:11:16;;;;;;;0.77;0.60;;;;;;;1.08;71.71;101903.50;4946489;29;20099;-78
2020/12/25 02:14:46;;;;;;;0.47;0.30;;;;;;;1.05;72.54;101903.81;4873155;29;20048;-78
2020/12/25 02:17:48;;;;;;;1.15;0.73;;;;;;;0.99;71.90;101904.47;4871572;28;20046;-76
2020/12/25 02:20:45;;;;;;;0.77;0.30;;;;;;;0.96;71.43;101904.81;4940734;29;20036;-74
2020/12/25 02:23:37;;;;;;;4.15;0.32;;;;;;;0.92;72.86;101906.16;4928144;29;20052;-74
2020/12/25 02:26:32;;;;;;;;;;;;;;;;;;;;;
2020/12/25 02:29:55;;;;;;;6.43;0.32;;;;;;;0.87;72.11;101899.41;4933492;29;20059;-76
2020/12/25 02:32:52;;;;;;;3.75;0.60;;;;;;;0.92;72.31;101919.63;4938420;29;20107;-75
2020/12/25 02:35:18;;;;;;;1.65;0.73;;;;;;;0.76;72.38;101894.34;4936665;29;20039;-73
2020/12/25 02:37:46;;;;;;;2.88;0.45;;;;;;;0.71;72.98;101891.28;4941361;29;20087;-75
2020/12/25 02:40:12;;;;;;;1.52;0.38;;;;;;;0.82;72.54;101907.16;4943436;29;20023;-75
2020/12/25 02:42:40;;;;;;;0.45;0.35;;;;;;;0.77;72.96;101906.78;4947469;29;20019;-74
2020/12/25 02:45:06;;;;;;;4.28;0.43;;;;;;;0.93;71.98;101929.38;4929232;29;20036;-74
2020/12/25 02:47:44;;;;;;;0.57;0.22;;;;;;;0.92;72.26;101928.56;4947077;29;20074;-74
2020/12/25 02:50:09;;;;;;;2.10;0.20;;;;;;;0.83;71.89;101922.31;4939354;29;20034;-75
2020/12/25 02:52:35;;;;;;;0.55;0.17;;;;;;;0.92;73.01;101933.09;4950248;29;20028;-76
2020/12/25 02:55:00;;;;;;;3.30;0.60;;;;;;;0.94;72.49;101944.56;4909220;29;20461;-76
2020/12/25 02:57:26;;;;;;;1.40;0.20;;;;;;;0.98;72.87;101935.09;4929842;29;20055;-74
2020/12/25 02:59:51;;;;;;;0.30;0.22;;;;;;;0.96;72.81;101931.75;4933854;29;20058;-75
2020/12/25 03:02:24;;;;;;;0.77;0.40;;;;;;;0.94;72.74;101933.78;4930361;29;20039;-75
2020/12/25 03:04:53;;;;;;;1.85;0.40;;;;;;;0.78;72.74;101921.94;4948979;29;20028;-76
2020/12/25 03:07:18;;;;;;;0.47;0.30;;;;;;;0.81;72.02;101929.69;4944639;29;20044;-76
2020/12/25 03:09:44;;;;;;;0.40;0.30;;;;;;;0.66;71.82;101909.81;4944318;29;20060;-76
2020/12/25 03:12:12;;;;;;;0.47;0.30;;;;;;;0.73;71.70;101929.69;4931872;29;20043;-76
2020/12/25 03:14:38;;;;;;;0.85;0.38;;;;;;;0.53;72.98;101907.56;4939570;29;20024;-76
2020/12/25 03:17:03;;;;;;;1.30;0.60;;;;;;;0.56;72.64;101915.31;4946965;29;20042;-75
2020/12/25 03:19:31;;;;;;;0.60;0.38;;;;;;;0.60;72.30;101931.97;4920345;29;20039;-76
2020/12/25 03:22:04;;;;;;;3.45;0.32;;;;;;;0.54;72.27;101927.25;4946481;29;20038;-76
2020/12/25 03:24:30;;;;;;;0.45;0.15;;;;;;;0.56;72.99;101938.72;4951491;29;20062;-75
2020/12/25 03:26:56;;;;;;;0.05;0.05;;;;;;;0.39;73.03;101910.88;4935366;29;20035;-75
2020/12/25 03:29:29;;;;;;;0.43;0.25;;;;;;;0.49;72.87;101933.97;4944974;29;20028;-75
2020/12/25 03:31:58;;;;;;;0.20;0.20;;;;;;;0.44;73.23;101922.84;4940947;29;20040;-75
2020/12/25 03:34:23;;;;;;;2.28;0.32;;;;;;;0.41;73.31;101936.63;4927172;29;20060;-76
2020/12/25 03:36:52;;;;;;;0.65;0.20;;;;;;;0.39;72.80;101930.56;4931837;29;20121;-75
2020/12/25 03:39:20;;;;;;;0.20;0.20;;;;;;;0.40;73.35;101926.03;4946811;29;20028;-75
2020/12/25 03:41:56;;;;;;;;;;;;;;;;;;;;;
2020/12/25 03:44:22;;;;;;;8.23;0.20;;;;;;;0.36;72.46;101920.13;4946626;29;20059;-76
2020/12/25 03:46:47;;;;;;;0.15;0.15;;;;;;;0.31;72.72;101911.72;4936739;29;20039;-75
2020/12/25 03:49:13;;;;;;;0.85;0.30;;;;;;;0.28;72.68;101920.09;4940327;29;20076;-76
2020/12/25 03:51:39;;;;;;;2.00;0.20;;;;;;;0.23;72.74;101925.13;4949189;29;20160;-75
2020/12/25 03:54:04;;;;;;;1.67;0.15;;;;;;;0.09;73.43;101913.94;4929973;29;20040;-76
2020/12/25 03:56:30;;;;;;;0.20;0.20;;;;;;;0.12;73.70;101916.31;4949754;29;20043;-77
2020/12/25 03:58:56;;;;;;;1.17;0.22;;;;;;;0.12;73.09;101929.78;4948217;29;20087;-76
2020/12/25 04:01:57;;;;;;;1.05;0.25;;;;;;;0.08;73.98;101925.72;4950494;29;20038;-75
2020/12/25 04:04:22;;;;;;;5.05;0.50;;;;;;;0.01;73.66;101919.28;4890125;29;20040;-76
2020/12/25 04:07:01;;;;;;;;;;;;;;;;;;;;;
2020/12/25 04:09:33;;;;;;;0.20;0.20;;;;;;;-0.07;73.51;101940.75;4944772;29;20051;-74
2020/12/25 04:12:02;;;;;;;0.20;0.20;;;;;;;-0.23;74.20;101922.69;4947452;29;20063;-73
2020/12/25 04:14:27;;;;;;;0.40;0.40;;;;;;;-0.26;73.46;101915.75;4944855;29;20020;-73
2020/12/25 04:16:53;;;;;;;0.45;0.45;;;;;;;-0.29;74.53;101915.22;4948425;29;20059;-75
2020/12/25 04:19:18;;;;;;;1.27;0.38;;;;;;;-0.25;74.67;101928.22;4952778;28;20043;-75
2020/12/25 04:21:43;;;;;;;0.43;0.28;;;;;;;-0.25;74.20;101935.41;4950281;29;20043;-76
2020/12/25 04:24:09;;;;;;;1.00;0.45;;;;;;;-0.31;74.68;101925.31;4949953;29;20043;-76
2020/12/25 04:26:34;;;;;;;2.38;0.43;;;;;;;-0.35;74.76;101930.16;4939860;29;20040;-76
2020/12/25 04:29:00;;;;;;;3.10;0.60;;;;;;;-0.30;75.30;101940.44;4928948;29;20036;-76
2020/12/25 04:31:27;;;;;;;0.10;0.10;;;;;;;-0.31;74.69;101938.75;4934143;29;20035;-76
2020/12/25 04:33:53;;;;;;;0.38;0.20;;;;;;;-0.34;74.71;101939.88;4952400;29;20086;-75
2020/12/25 04:36:19;;;;;;;0.68;0.50;;;;;;;-0.40;74.88;101945.91;4952208;29;20303;-76
2020/12/25 04:38:45;;;;;;;1.77;0.20;;;;;;;-0.43;75.14;101933.59;4945247;29;20028;-75
2020/12/25 04:41:11;;;;;;;0.57;0.20;;;;;;;-0.37;75.21;101945.59;4934180;29;20039;-73
2020/12/25 04:43:40;;;;;;;0.80;0.30;;;;;;;-0.37;74.64;101945.59;4939825;29;20036;-75
2020/12/25 04:46:07;;;;;;;0.45;0.30;;;;;;;-0.41;74.55;101938.81;4942041;29;20122;-75
2020/12/25 04:48:35;;;;;;;0.98;0.17;;;;;;;-0.37;75.07;101953.66;4947586;29;20058;-74
2020/12/25 04:51:01;;;;;;;0.40;0.30;;;;;;;-0.40;75.31;101943.22;4946638;29;20039;-75
2020/12/25 04:53:28;;;;;;;0.10;0.10;;;;;;;-0.38;75.07;101947.44;4952627;29;20039;-75
2020/12/25 04:55:53;;;;;;;0.63;0.30;;;;;;;-0.37;75.04;101951.78;4941243;29;20030;-74
2020/12/25 04:58:18;;;;;;;0.30;0.30;;;;;;;-0.36;74.56;101947.28;4936875;29;20020;-73
2020/12/25 05:01:00;;;;;;;2.05;0.20;;;;;;;-0.35;74.97;101959.72;4950785;29;20063;-75
2020/12/25 05:03:26;;;;;;;0.20;0.10;;;;;;;-0.36;74.74;101960.72;4951573;29;20103;-73
2020/12/25 05:05:51;;;;;;;0.47;0.22;;;;;;;-0.45;74.92;101942.81;4935345;29;20058;-76
2020/12/25 05:08:19;;;;;;;0.45;0.20;;;;;;;-0.38;74.82;101960.00;4937300;29;20044;-72
2020/12/25 05:10:45;;;;;;;0.68;0.35;;;;;;;-0.35;75.24;101970.47;4944504;29;20004;-75
2020/12/25 05:13:10;;;;;;;2.33;0.30;;;;;;;-0.36;75.13;101979.53;4952404;29;20042;-74
2020/12/25 05:15:35;;;;;;;0.30;0.17;;;;;;;-0.37;75.34;101973.28;4950276;29;20028;-76
2020/12/25 05:18:05;;;;;;;0.30;0.13;;;;;;;-0.35;74.67;101975.84;4931583;29;20064;-77
2020/12/25 05:20:31;;;;;;;1.65;0.32;;;;;;;-0.36;75.30;101975.00;4947401;29;20050;-78
2020/12/25 05:23:09;;;;;;;0.10;0.10;;;;;;;-0.35;74.92;101975.84;4927584;29;20040;-77
2020/12/25 05:25:35;;;;;;;0.08;0.00;;;;;;;-0.40;75.01;101970.09;4919503;29;20038;-77
2020/12/25 05:28:11;;;;;;;0.65;0.30;;;;;;;-0.33;74.72;101973.00;4897563;29;20059;-78
2020/12/25 05:30:36;;;;;;;1.45;0.20;;;;;;;-0.35;74.92;101975.84;4940937;29;20015;-77
2020/12/25 05:33:02;;;;;;;0.40;0.15;;;;;;;-0.38;74.51;101987.75;4942965;29;20128;-76
2020/12/25 05:35:29;;;;;;;1.75;0.43;;;;;;;-0.40;74.49;101989.75;4931376;29;20138;-77
2020/12/25 05:37:55;;;;;;;0.40;0.20;;;;;;;-0.44;75.30;101984.84;4929488;29;20032;-79
2020/12/25 05:40:23;;;;;;;0.30;0.10;;;;;;;-0.48;75.10;101976.25;4941871;29;20114;-77
2020/12/25 05:42:50;;;;;;;5.93;0.60;;;;;;;-0.45;75.37;101991.19;4941648;29;20031;-79
2020/12/25 05:45:21;;;;;;;2.85;0.35;;;;;;;-0.46;75.53;101994.91;4923007;29;20020;-78
2020/12/25 05:47:47;;;;;;;0.30;0.20;;;;;;;-0.51;75.49;101989.13;4918676;29;20051;-77
2020/12/25 05:50:20;;;;;;;0.03;0.03;;;;;;;-0.50;75.56;101996.22;4919563;29;20403;-78
2020/12/25 05:52:47;;;;;;;4.75;0.40;;;;;;;-0.53;75.56;101991.97;4919886;29;20446;-76
2020/12/25 05:55:17;;;;;;;1.00;0.45;;;;;;;-0.57;75.94;101994.16;4904636;29;20031;-77
2020/12/25 05:57:48;;;;;;;2.55;0.30;;;;;;;-0.55;75.87;102007.44;4928007;29;20049;-76
2020/12/25 06:00:17;;;;;;;0.90;0.13;;;;;;;-0.57;75.25;102004.03;4933259;29;20028;-77
2020/12/25 06:02:44;;;;;;;0.40;0.35;;;;;;;-0.57;75.65;101995.97;4922533;29;20019;-77
2020/12/25 06:05:13;;;;;;;2.63;0.30;;;;;;;-0.58;75.92;102002.38;4931565;29;20043;-77
2020/12/25 06:07:56;;;;;;;0.15;0.10;;;;;;;-0.60;75.51;102005.22;4926239;29;20055;-78
2020/12/25 06:10:29;;;;;;;0.98;0.30;;;;;;;-0.62;75.50;102001.81;4940070;29;20098;-77
2020/12/25 06:12:56;;;;;;;1.20;0.20;;;;;;;-0.63;75.49;102005.50;4928129;29;20034;-78
2020/12/25 06:15:30;;;;;;;0.35;0.20;;;;;;;-0.62;75.74;102007.19;4942046;29;20052;-79
2020/12/25 06:18:14;;;;;;;0.35;0.32;;;;;;;-0.62;75.79;102012.56;4931075;29;20122;-78
2020/12/25 06:20:48;;;;;;;0.20;0.10;;;;;;;-0.65;75.88;102023.63;4936939;29;20040;-76
2020/12/25 06:23:15;;;;;;;0.28;0.28;;;;;;;-0.68;75.76;102023.94;4935785;29;20035;-78
2020/12/25 06:25:40;;;;;;;3.40;0.17;;;;;;;-0.69;75.74;102022.22;4925573;29;20168;-77
2020/12/25 06:28:07;;;;;;;0.25;0.20;;;;;;;-0.74;76.08;102013.78;4902967;29;20141;-79
2020/12/25 06:30:34;;;;;;;0.63;0.30;;;;;;;-0.71;75.92;102024.22;4904183;29;20500;-78
2020/12/25 06:32:59;;;;;;;0.52;0.30;;;;;;;-0.74;76.65;102030.75;4913269;29;20043;-77
2020/12/25 06:35:37;;;;;;;1.98;0.38;;;;;;;-0.74;76.56;102024.53;4944316;29;20040;-78
2020/12/25 06:38:09;;;;;;;0.10;0.10;;;;;;;-0.72;76.41;102025.22;4925027;29;20028;-79
2020/12/25 06:40:35;;;;;;;2.22;0.50;;;;;;;-0.72;76.41;102033.28;4920799;29;20039;-76
2020/12/25 06:43:01;;;;;;;1.27;0.30;;;;;;;-0.73;76.14;102037.81;4928608;29;20474;-79
2020/12/25 06:45:31;;;;;;;0.75;0.30;;;;;;;-0.77;75.85;102030.22;4937737;29;20059;-78
2020/12/25 06:48:14;;;;;;;5.75;0.30;;;;;;;-0.79;76.52;102037.56;4924500;29;20043;-79
2020/12/25 06:50:45;;;;;;;5.97;0.40;;;;;;;-0.80;75.89;102035.91;4919064;29;20107;-79
2020/12/25 06:53:30;;;;;;;0.65;0.28;;;;;;;-0.81;75.83;102034.19;4895343;29;20020;-78
2020/12/25 06:56:06;;;;;;;0.17;0.17;;;;;;;-0.86;76.03;102031.97;4912303;29;20025;-79
2020/12/25 06:58:43;;;;;;;0.75;0.40;;;;;;;-0.86;76.07;102039.16;4923518;29;20115;-80
2020/12/25 07:01:10;;;;;;;2.15;0.38;;;;;;;-0.91;76.79;102029.72;4920366;29;20071;-76
2020/12/25 07:03:37;;;;;;;0.55;0.20;;;;;;;-0.94;76.25;102021.97;4907908;29;20110;-77
2020/12/25 07:06:04;;;;;;;1.40;0.20;;;;;;;-0.94;76.87;102023.81;4903890;29;20115;-77
2020/12/25 07:08:30;;;;;;;0.20;0.13;;;;;;;-0.95;76.50;102028.34;4906863;29;20099;-77
2020/12/25 07:11:07;;;;;;;6.43;0.50;;;;;;;-0.98;76.19;102023.28;4918879;29;20028;-78
2020/12/25 07:13:34;;;;;;;0.93;0.32;;;;;;;-0.99;76.69;102032.31;4918511;29;20028;-78
2020/12/25 07:15:59;;;;;;;0.57;0.20;;;;;;;-1.01;76.77;102022.72;4916240;29;20068;-78
2020/12/25 07:18:26;;;;;;;0.45;0.20;;;;;;;-1.03;76.59;102035.47;4893091;29;20039;-77
2020/12/25 07:20:51;;;;;;;0.85;0.30;;;;;;;-1.03;77.14;102047.03;4920280;29;20024;-78
2020/12/25 07:23:18;;;;;;;0.28;0.10;;;;;;;-1.08;77.04;102034.06;4887395;29;20430;-77
2020/12/25 07:25:43;;;;;;;0.68;0.10;;;;;;;-1.12;77.20;102034.53;4896504;29;20036;-78
2020/12/25 07:28:09;;;;;;;0.40;0.20;;;;;;;-1.09;76.11;102051.16;4919055;29;20036;-77
2020/12/25 07:30:34;;;;;;;0.45;0.20;;;;;;;-1.14;76.60;102045.41;4907339;29;20056;-78
2020/12/25 07:33:04;;;;;;;1.35;0.50;;;;;;;-1.13;77.44;102051.63;4919882;29;20073;-77
2020/12/25 07:35:29;;;;;;;2.30;0.35;;;;;;;-1.16;77.15;102047.38;4923721;29;20028;-77
2020/12/25 07:37:55;;;;;;;0.82;0.13;;;;;;;-1.15;77.59;102048.25;4879672;29;21609;-78
2020/12/25 07:40:20;;;;;;;3.90;0.40;;;;;;;-1.14;77.18;102052.59;4920121;29;20103;-78
2020/12/25 07:42:46;;;;;;;0.65;0.30;;;;;;;-1.16;77.47;102042.00;4888886;29;20054;-77
2020/12/25 07:45:11;;;;;;;0.63;0.15;;;;;;;-1.15;77.28;102051.78;4891912;29;20035;-77
2020/12/25 07:47:40;;;;;;;0.90;0.17;;;;;;;-1.17;77.20;102043.00;4887739;29;20100;-77
2020/12/25 07:50:06;;;;;;;0.40;0.30;;;;;;;-1.13;77.21;102052.44;4945264;29;20055;-77
2020/12/25 07:52:31;;;;;;;0.10;0.10;;;;;;;-1.16;77.58;102049.25;4902109;29;20375;-76
2020/12/25 07:54:57;;;;;;;2.00;0.25;;;;;;;-1.17;77.37;102044.84;4919990;29;20065;-76
2020/12/25 07:57:23;;;;;;;0.35;0.25;;;;;;;-1.21;77.32;102044.31;4907167;29;20546;-77
2020/12/25 07:59:49;;;;;;;3.15;0.50;;;;;;;-1.17;77.82;102050.22;4944163;29;20042;-77
2020/12/25 08:02:17;;;;;;;0.35;0.20;;;;;;;-1.16;77.90;102057.28;4903421;29;20390;-77
2020/12/25 08:04:48;;;;;;;1.50;0.22;;;;;;;-1.16;77.24;102055.44;4920402;29;20031;-77
2020/12/25 08:07:14;;;;;;;0.80;0.10;;;;;;;-1.22;76.88;102039.94;4931281;29;20087;-77
2020/12/25 08:09:40;;;;;;;0.10;0.10;;;;;;;-1.20;77.65;102045.16;4889271;29;20075;-79
2020/12/25 08:12:10;;;;;;;0.55;0.10;;;;;;;-1.14;77.40;102057.97;4897785;29;20043;-78
2020/12/25 08:14:38;;;;;;;1.02;0.20;;;;;;;-1.10;77.88;102057.53;4935731;29;20434;-78
2020/12/25 08:17:04;;;;;;;0.40;0.25;;;;;;;-1.07;77.65;102061.75;4909714;29;20124;-76
2020/12/25 08:19:34;;;;;;;0.50;0.10;;;;;;;-1.04;77.51;102061.47;4890294;29;20044;-77
2020/12/25 08:22:04;;;;;;;1.15;0.22;;;;;;;-1.06;77.72;102053.56;4931048;29;20171;-78
2020/12/25 08:24:29;;;;;;;1.02;0.25;;;;;;;-0.98;77.89;102049.28;4920416;29;20125;-78
2020/12/25 08:27:00;;;;;;;0.65;0.20;;;;;;;-0.89;77.42;102054.59;4923230;29;20160;-77
2020/12/25 08:29:37;;;;;;;1.45;0.43;;;;;;;-0.90;77.77;102047.53;4917718;29;20035;-78
2020/12/25 08:32:08;;;;;;;0.60;0.30;;;;;;;-0.76;77.44;102059.63;4903412;29;20040;-78
2020/12/25 08:34:37;;;;;;;5.63;0.38;;;;;;;-0.70;77.75;102058.19;4940741;29;20064;-77
2020/12/25 08:37:13;;;;;;;0.40;0.20;;;;;;;-0.62;77.86;102060.94;4933884;29;20035;-78
2020/12/25 08:39:40;;;;;;;2.15;0.30;;;;;;;-0.56;77.61;102054.94;4897752;29;20114;-76
2020/12/25 08:42:09;;;;;;;0.45;0.20;;;;;;;-0.56;77.56;102041.50;4908224;29;20036;-76
2020/12/25 08:44:35;;;;;;;4.22;0.30;;;;;;;-0.40;76.89;102064.19;4916258;29;20039;-77
2020/12/25 08:47:31;;;;;;;1.02;0.13;;;;;;;-0.32;77.00;102064.25;4929064;29;20040;-76
2020/12/25 08:49:56;;;;;;;0.60;0.13;;;;;;;-0.26;76.77;102070.88;4877626;29;20040;-77
2020/12/25 08:52:33;;;;;;;0.75;0.20;;;;;;;-0.16;76.48;102060.00;4920901;29;20099;-77
2020/12/25 08:54:59;;;;;;;1.27;0.40;;;;;;;-0.11;76.49;102057.72;4917765;29;20182;-75
2020/12/25 08:57:25;;;;;;;0.38;0.20;;;;;;;-0.08;76.24;102058.22;4918023;29;20048;-76
2020/12/25 09:02:19;;;;;;;;;;;;;;;;;;;;;
2020/12/25 09:04:48;;;;;;;4.55;0.50;;;;;;;0.14;75.72;102056.06;5107250;28;20010;-75
2020/12/25 09:07:14;;;;;;;0.40;0.32;;;;;;;0.24;76.18;102061.34;5109022;28;20066;-73
2020/12/25 09:09:39;;;;;;;0.50;0.30;;;;;;;0.30;75.76;102055.31;5108522;28;20024;-74
2020/12/25 09:12:05;;;;;;;3.80;0.60;;;;;;;0.36;75.53;102059.22;5101900;28;20039;-75
2020/12/25 09:14:30;;;;;;;0.30;0.22;;;;;;;0.42;75.65;102056.72;5109957;28;20108;-74
2020/12/25 09:16:56;;;;;;;1.15;0.40;;;;;;;0.50;76.03;102056.78;5095305;28;20110;-74
2020/12/25 09:19:22;;;;;;;3.13;0.52;;;;;;;0.54;75.25;102056.47;5081985;28;20393;-74
2020/12/25 09:21:47;;;;;;;0.80;0.20;;;;;;;0.67;74.79;102067.66;5107850;28;20054;-75
2020/12/25 09:24:13;;;;;;;0.35;0.17;;;;;;;0.77;75.29;102073.75;5100619;28;20061;-77
2020/12/25 09:26:38;;;;;;;0.35;0.17;;;;;;;0.90;74.34;102077.88;5084038;28;20042;-75
2020/12/25 09:29:03;;;;;;;2.55;0.32;;;;;;;1.07;74.86;102071.53;5091305;28;20035;-73
2020/12/25 09:31:29;;;;;;;0.30;0.10;;;;;;;1.31;74.96;102069.94;5101419;28;20024;-76
2020/12/25 09:33:54;;;;;;;1.05;0.20;;;;;;;1.48;74.02;102074.34;5104790;28;20385;-76
2020/12/25 09:36:20;;;;;;;3.20;0.30;;;;;;;1.56;73.97;102074.38;5104044;28;20039;-73
2020/12/25 09:38:45;;;;;;;1.58;0.20;;;;;;;1.67;74.09;102080.47;5078641;28;20110;-74
2020/12/25 09:41:14;;;;;;;5.25;1.17;;;;;;;1.73;72.99;102079.78;5103893;28;20032;-74
2020/12/25 09:43:40;;;;;;;0.75;0.35;;;;;;;2.03;73.70;102085.53;5105959;28;20032;-73
2020/12/25 09:46:05;;;;;;;0.95;0.40;;;;;;;2.99;74.03;102083.00;5100904;28;20031;-77
2020/12/25 09:48:31;;;;;;;1.02;0.20;;;;;;;4.25;73.03;102098.09;5105398;28;20028;-79
2020/12/25 09:50:57;;;;;;;1.55;0.70;;;;;;;5.44;69.01;102091.81;5087677;28;20385;-78
2020/12/25 09:53:23;;;;;;;0.68;0.15;;;;;;;6.49;66.94;102104.97;5103921;28;20030;-78
2020/12/25 09:55:50;;;;;;;0.85;0.30;;;;;;;7.41;63.44;102098.34;5109466;28;20374;-78
2020/12/25 09:58:16;;;;;;;0.65;0.20;;;;;;;8.24;63.34;102101.88;5106742;28;20026;-77
2020/12/25 10:00:42;;;;;;;2.53;0.10;;;;;;;8.89;59.89;102107.47;5098827;28;20046;-77
2020/12/25 10:03:07;;;;;;;0.30;0.05;;;;;;;9.15;58.04;102103.84;5105848;28;20056;-76
2020/12/25 10:05:32;;;;;;;1.75;0.40;;;;;;;9.38;55.82;102102.50;5106318;28;20027;-77
2020/12/25 10:07:58;;;;;;;3.35;0.10;;;;;;;9.78;55.50;102107.72;5100876;28;20035;-77
2020/12/25 10:10:24;;;;;;;0.45;0.20;;;;;;;10.33;53.83;102103.56;5108565;28;20480;-77
2020/12/25 10:12:51;;;;;;;0.30;0.10;;;;;;;10.68;52.57;102100.34;5112821;27;20131;-78
2020/12/25 10:15:16;;;;;;;4.53;0.35;;;;;;;10.72;51.06;102098.81;5083281;28;20031;-78
2020/12/25 10:17:42;;;;;;;0.30;0.20;;;;;;;10.95;49.86;102100.88;5096440;28;20462;-76
2020/12/25 10:20:07;;;;;;;0.85;0.40;;;;;;;11.27;48.68;102098.84;5086743;28;20035;-77
2020/12/25 10:22:33;;;;;;;0.57;0.30;;;;;;;11.69;48.83;102087.91;5079284;28;20027;-81
2020/12/25 10:24:58;;;;;;;1.05;0.20;;;;;;;12.22;47.46;102088.19;5092156;28;20486;-79
2020/12/25 10:27:25;;;;;;;0.52;0.28;;;;;;;12.62;45.23;102087.53;5096933;28;20085;-78
2020/12/25 10:29:50;;;;;;;0.75;0.30;;;;;;;12.99;45.60;102086.41;5095267;28;20034;-77
2020/12/25 10:32:16;;;;;;;1.15;0.28;;;;;;;13.58;44.53;102094.50;5085720;28;20115;-78
2020/12/25 10:34:41;;;;;;;0.40;0.20;;;;;;;14.07;43.29;102097.59;5084452;28;20060;-79
2020/12/25 10:37:07;;;;;;;2.55;0.30;;;;;;;14.44;42.23;102094.34;5077484;28;20040;-77
2020/12/25 10:39:32;;;;;;;0.32;0.25;;;;;;;14.78;41.12;102091.56;5069310;28;20086;-76
2020/12/25 10:41:57;;;;;;;6.10;0.63;;;;;;;15.29;41.93;102085.91;5095357;28;20073;-76
2020/12/25 10:44:23;;;;;;;0.28;0.28;;;;;;;15.71;39.07;102084.41;5092077;28;20036;-78
2020/12/25 10:46:48;;;;;;;0.70;0.20;;;;;;;15.86;39.38;102089.28;5084552;28;20539;-79
2020/12/25 10:49:14;;;;;;;0.52;0.40;;;;;;;16.25;38.13;102079.97;5088781;28;20032;-79
2020/12/25 10:51:48;;;;;;;2.80;0.30;;;;;;;16.74;38.77;102094.38;5090834;28;20035;-79
2020/12/25 10:54:14;;;;;;;0.32;0.20;;;;;;;17.31;37.74;102108.50;5100133;28;20027;-79
2020/12/25 10:56:39;;;;;;;0.43;0.20;;;;;;;17.85;37.33;102101.72;5094736;28;20111;-78
2020/12/25 10:59:04;;;;;;;0.20;0.20;;;;;;;18.49;38.77;102105.91;5092603;28;21891;-80
2020/12/25 11:01:30;;;;;;;0.10;0.05;;;;;;;19.22;38.45;102109.38;5091078;28;20059;-76
2020/12/25 11:03:57;;;;;;;0.22;0.10;;;;;;;19.73;33.71;102099.09;5090521;28;20108;-77
2020/12/25 11:06:36;;;;;;;0.40;0.25;;;;;;;20.03;34.67;102103.63;5091339;28;20028;-77
2020/12/25 11:09:06;;;;;;;0.77;0.77;;;;;;;20.30;33.42;102100.38;5090749;28;20089;-74
2020/12/25 11:11:34;;;;;;;1.48;0.13;;;;;;;20.80;35.44;102093.78;5087297;28;20020;-77
2020/12/25 11:14:00;;;;;;;5.10;0.28;;;;;;;21.23;33.61;102086.31;5088316;28;20032;-78
2020/12/25 11:16:26;;;;;;;1.10;0.20;;;;;;;21.76;33.20;102088.09;5086470;28;20046;-77
2020/12/25 11:18:53;;;;;;;0.13;0.10;;;;;;;22.11;33.21;102099.78;5085628;28;20115;-77
2020/12/25 11:21:19;;;;;;;0.10;0.10;;;;;;;22.02;31.65;102090.50;5087222;28;20024;-76
2020/12/25 11:23:44;;;;;;;0.50;0.20;;;;;;;22.00;30.13;102087.16;5090772;28;20031;-78
2020/12/25 11:26:24;;;;;;;1.10;0.20;;;;;;;21.76;30.37;102088.09;5074982;28;20067;-77
2020/12/25 11:28:51;;;;;;;0.10;0.10;;;;;;;21.61;29.42;102082.75;5079574;28;20355;-77
2020/12/25 11:31:18;;;;;;;0.43;0.22;;;;;;;21.37;28.65;102075.25;5085930;28;20030;-77
2020/12/25 11:33:43;;;;;;;0.40;0.17;;;;;;;21.17;28.86;102072.75;5075532;28;20024;-76
2020/12/25 11:36:17;;;;;;;0.28;0.10;;;;;;;21.16;29.80;102068.31;5083631;28;20039;-77
2020/12/25 11:38:44;;;;;;;3.33;0.35;;;;;;;21.05;28.41;102057.31;5094314;28;20113;-78
2020/12/25 11:41:10;;;;;;;0.15;0.10;;;;;;;21.00;29.02;102054.63;5085821;28;20060;-78
2020/12/25 11:43:37;;;;;;;0.30;0.10;;;;;;;20.93;28.49;102054.16;5087160;28;20020;-78
2020/12/25 11:46:04;;;;;;;2.85;0.20;;;;;;;20.96;29.65;102056.34;5084625;28;20019;-78
2020/12/25 11:48:29;;;;;;;0.40;0.15;;;;;;;21.13;29.26;102055.84;5088337;28;20357;-77
2020/12/25 11:50:55;;;;;;;1.25;0.20;;;;;;;21.26;29.08;102051.50;5072217;28;20028;-77